SKCL/CLO METAR and TAF weather

Enter ICAO airport designator
Station Type Date Time Source
SKCL METAR 2021/10/22 20:00 UTC NOAA

SKCL 222000Z VRB03KT 9999 SCT025TCU SCT200 28/20 Q1013 NOSIG RMK TCU/NE/E A2992


Station Type Date Time Source
SKCL Decoded METAR 2021/10/22 20:00 UTC NOAA

Cali / Alfonso Bonillaaragon, Colombia (SKCL) 03-33N 076-23W 969M
Oct 22, 2021 - 04:00 PM EDT / 2021.10.22 2000 UTC
Wind: Variable at 3 MPH (3 KT):0
Visibility: greater than 7 mile(s):0
Sky conditions: partly cloudy
Weather: Towering cumulus clouds observed
Temperature: 82 F (28 C)
Dew Point: 68 F (20 C)
Relative Humidity: 61%
Pressure (altimeter): 29.91 in. Hg (1013 hPa)
ob: SKCL 222000Z VRB03KT 9999 SCT025TCU SCT200 28/20 Q1013 NOSIG RMK TCU/NE/E A2992
cycle: 20

Station Type Date Time Source
SKCL TAF 2021/10/22 18:45 UTC NOAA

TAF SKCL 221630Z 2218/2318 06006KT 9999 SCT020
TEMPO 2218/2221 SCT020TCU
BECMG 2300/2302 VRB04KT SCT017 BKN100 PROB40
TEMPO 2305/2311 7000 DZRA
TEMPO 2311/2314 6000 VCFG SCT010 TX30/2219Z TN19/2311Z

Example: see airport list